sensor_id;sensor_type;location;lat;lon;timestamp;P1;durP1;ratioP1;P2;durP2;ratioP2
68214;SDS011;55036;52.138;5.236;2024-03-08T00:00:42;29.45;;;15.73;;
68214;SDS011;55036;52.138;5.236;2024-03-08T00:03:09;35.67;;;17.17;;
68214;SDS011;55036;52.138;5.236;2024-03-08T00:05:36;30.05;;;16.33;;
68214;SDS011;55036;52.138;5.236;2024-03-08T00:08:05;29.52;;;14.68;;
68214;SDS011;55036;52.138;5.236;2024-03-08T00:10:36;35.42;;;17.58;;
68214;SDS011;55036;52.138;5.236;2024-03-08T00:13:02;33.45;;;16.50;;
68214;SDS011;55036;52.138;5.236;2024-03-08T00:15:30;32.75;;;16.75;;
68214;SDS011;55036;52.138;5.236;2024-03-08T00:17:58;30.65;;;16.15;;
68214;SDS011;55036;52.138;5.236;2024-03-08T00:20:25;31.85;;;16.10;;
68214;SDS011;55036;52.138;5.236;2024-03-08T00:22:52;32.60;;;17.20;;
68214;SDS011;55036;52.138;5.236;2024-03-08T00:25:19;29.73;;;16.40;;
68214;SDS011;55036;52.138;5.236;2024-03-08T00:27:46;31.08;;;16.50;;
68214;SDS011;55036;52.138;5.236;2024-03-08T00:30:16;31.50;;;17.40;;
68214;SDS011;55036;52.138;5.236;2024-03-08T00:32:43;32.65;;;17.73;;
68214;SDS011;55036;52.138;5.236;2024-03-08T00:35:10;23.75;;;13.20;;
68214;SDS011;55036;52.138;5.236;2024-03-08T00:37:38;29.55;;;16.00;;
68214;SDS011;55036;52.138;5.236;2024-03-08T00:40:05;30.23;;;16.50;;
68214;SDS011;55036;52.138;5.236;2024-03-08T00:42:33;24.67;;;11.38;;
68214;SDS011;55036;52.138;5.236;2024-03-08T00:45:00;31.10;;;16.17;;
68214;SDS011;55036;52.138;5.236;2024-03-08T00:47:27;28.42;;;13.65;;
68214;SDS011;55036;52.138;5.236;2024-03-08T00:49:54;26.70;;;15.43;;
68214;SDS011;55036;52.138;5.236;2024-03-08T00:52:23;31.33;;;16.80;;
68214;SDS011;55036;52.138;5.236;2024-03-08T00:54:52;29.67;;;16.88;;
68214;SDS011;55036;52.138;5.236;2024-03-08T00:57:19;28.70;;;15.75;;
68214;SDS011;55036;52.138;5.236;2024-03-08T00:59:47;36.05;;;16.45;;
68214;SDS011;55036;52.138;5.236;2024-03-08T01:02:14;28.25;;;17.23;;
68214;SDS011;55036;52.138;5.236;2024-03-08T01:04:43;31.13;;;17.42;;
68214;SDS011;55036;52.138;5.236;2024-03-08T01:07:10;30.98;;;16.55;;
68214;SDS011;55036;52.138;5.236;2024-03-08T01:09:36;29.33;;;15.25;;
68214;SDS011;55036;52.138;5.236;2024-03-08T01:12:03;31.25;;;16.92;;
68214;SDS011;55036;52.138;5.236;2024-03-08T01:14:31;34.08;;;16.25;;
68214;SDS011;55036;52.138;5.236;2024-03-08T01:16:58;30.48;;;14.80;;
68214;SDS011;55036;52.138;5.236;2024-03-08T01:19:25;31.30;;;17.17;;
68214;SDS011;55036;52.138;5.236;2024-03-08T01:21:52;32.22;;;16.88;;
68214;SDS011;55036;52.138;5.236;2024-03-08T01:24:19;34.22;;;17.33;;
68214;SDS011;55036;52.138;5.236;2024-03-08T01:26:45;28.55;;;15.68;;
68214;SDS011;55036;52.138;5.236;2024-03-08T01:29:13;24.30;;;13.00;;
68214;SDS011;55036;52.138;5.236;2024-03-08T01:31:40;35.90;;;16.52;;
68214;SDS011;55036;52.138;5.236;2024-03-08T01:34:07;33.20;;;16.13;;
68214;SDS011;55036;52.138;5.236;2024-03-08T01:36:34;28.42;;;15.43;;
68214;SDS011;55036;52.138;5.236;2024-03-08T01:39:03;27.15;;;16.70;;
68214;SDS011;55036;52.138;5.236;2024-03-08T01:41:34;32.65;;;15.65;;
68214;SDS011;55036;52.138;5.236;2024-03-08T01:44:02;32.15;;;17.35;;
68214;SDS011;55036;52.138;5.236;2024-03-08T01:46:29;29.38;;;15.60;;
68214;SDS011;55036;52.138;5.236;2024-03-08T01:48:57;33.50;;;16.90;;
68214;SDS011;55036;52.138;5.236;2024-03-08T01:51:24;32.13;;;17.63;;
68214;SDS011;55036;52.138;5.236;2024-03-08T01:53:51;29.27;;;15.70;;
68214;SDS011;55036;52.138;5.236;2024-03-08T01:56:18;32.53;;;17.80;;
68214;SDS011;55036;52.138;5.236;2024-03-08T01:58:45;32.95;;;17.45;;
68214;SDS011;55036;52.138;5.236;2024-03-08T02:01:13;32.53;;;16.83;;
68214;SDS011;55036;52.138;5.236;2024-03-08T02:03:42;29.75;;;16.83;;
68214;SDS011;55036;52.138;5.236;2024-03-08T02:06:13;31.33;;;16.80;;
68214;SDS011;55036;52.138;5.236;2024-03-08T02:08:41;34.05;;;17.77;;
68214;SDS011;55036;52.138;5.236;2024-03-08T02:11:10;30.85;;;16.50;;
68214;SDS011;55036;52.138;5.236;2024-03-08T02:13:38;25.05;;;14.50;;
68214;SDS011;55036;52.138;5.236;2024-03-08T02:16:04;32.17;;;16.75;;
68214;SDS011;55036;52.138;5.236;2024-03-08T02:18:34;30.95;;;17.27;;
68214;SDS011;55036;52.138;5.236;2024-03-08T02:21:02;31.48;;;16.58;;
68214;SDS011;55036;52.138;5.236;2024-03-08T02:23:30;32.67;;;18.42;;
68214;SDS011;55036;52.138;5.236;2024-03-08T02:25:57;25.25;;;16.10;;
68214;SDS011;55036;52.138;5.236;2024-03-08T02:28:24;27.25;;;15.32;;
68214;SDS011;55036;52.138;5.236;2024-03-08T02:30:51;26.60;;;14.43;;
68214;SDS011;55036;52.138;5.236;2024-03-08T02:33:25;30.67;;;16.80;;
68214;SDS011;55036;52.138;5.236;2024-03-08T02:35:53;30.98;;;17.30;;
68214;SDS011;55036;52.138;5.236;2024-03-08T02:38:21;30.27;;;17.33;;
68214;SDS011;55036;52.138;5.236;2024-03-08T02:40:52;26.92;;;16.00;;
68214;SDS011;55036;52.138;5.236;2024-03-08T02:43:20;34.38;;;17.27;;
68214;SDS011;55036;52.138;5.236;2024-03-08T02:45:51;30.95;;;16.80;;
68214;SDS011;55036;52.138;5.236;2024-03-08T02:48:21;34.92;;;17.65;;
68214;SDS011;55036;52.138;5.236;2024-03-08T02:50:48;31.73;;;16.80;;
68214;SDS011;55036;52.138;5.236;2024-03-08T02:53:14;28.67;;;16.92;;
68214;SDS011;55036;52.138;5.236;2024-03-08T02:55:41;28.00;;;16.90;;
68214;SDS011;55036;52.138;5.236;2024-03-08T02:58:08;23.40;;;13.32;;
68214;SDS011;55036;52.138;5.236;2024-03-08T03:00:36;29.45;;;17.45;;
68214;SDS011;55036;52.138;5.236;2024-03-08T03:03:05;32.17;;;16.48;;
68214;SDS011;55036;52.138;5.236;2024-03-08T03:05:32;32.53;;;18.13;;
68214;SDS011;55036;52.138;5.236;2024-03-08T03:08:00;30.45;;;17.67;;
68214;SDS011;55036;52.138;5.236;2024-03-08T03:10:27;32.30;;;17.27;;
68214;SDS011;55036;52.138;5.236;2024-03-08T03:12:53;31.10;;;15.48;;
68214;SDS011;55036;52.138;5.236;2024-03-08T03:15:20;32.58;;;17.58;;
68214;SDS011;55036;52.138;5.236;2024-03-08T03:17:47;27.92;;;15.25;;
68214;SDS011;55036;52.138;5.236;2024-03-08T03:20:17;27.05;;;16.27;;
68214;SDS011;55036;52.138;5.236;2024-03-08T03:22:53;29.75;;;16.77;;
68214;SDS011;55036;52.138;5.236;2024-03-08T03:25:20;30.08;;;16.50;;
68214;SDS011;55036;52.138;5.236;2024-03-08T03:27:52;28.92;;;17.50;;
68214;SDS011;55036;52.138;5.236;2024-03-08T03:30:23;33.13;;;18.13;;
68214;SDS011;55036;52.138;5.236;2024-03-08T03:32:52;31.02;;;18.42;;
68214;SDS011;55036;52.138;5.236;2024-03-08T03:35:21;34.78;;;18.05;;
68214;SDS011;55036;52.138;5.236;2024-03-08T03:37:48;30.70;;;17.95;;
68214;SDS011;55036;52.138;5.236;2024-03-08T03:40:35;25.10;;;14.75;;
68214;SDS011;55036;52.138;5.236;2024-03-08T03:43:02;28.42;;;16.17;;
68214;SDS011;55036;52.138;5.236;2024-03-08T03:45:30;34.60;;;18.10;;
68214;SDS011;55036;52.138;5.236;2024-03-08T03:48:03;31.83;;;17.48;;
68214;SDS011;55036;52.138;5.236;2024-03-08T03:50:35;31.05;;;17.00;;
68214;SDS011;55036;52.138;5.236;2024-03-08T03:53:03;29.15;;;17.15;;
68214;SDS011;55036;52.138;5.236;2024-03-08T03:55:30;28.55;;;17.42;;
68214;SDS011;55036;52.138;5.236;2024-03-08T03:57:57;26.83;;;12.73;;
68214;SDS011;55036;52.138;5.236;2024-03-08T04:00:25;27.58;;;16.70;;
68214;SDS011;55036;52.138;5.236;2024-03-08T04:02:53;32.45;;;18.15;;
68214;SDS011;55036;52.138;5.236;2024-03-08T04:05:21;38.85;;;18.88;;
68214;SDS011;55036;52.138;5.236;2024-03-08T04:07:48;28.02;;;17.48;;
68214;SDS011;55036;52.138;5.236;2024-03-08T04:10:15;28.85;;;15.27;;
68214;SDS011;55036;52.138;5.236;2024-03-08T04:12:41;25.98;;;15.90;;
68214;SDS011;55036;52.138;5.236;2024-03-08T04:15:08;28.30;;;17.63;;
68214;SDS011;55036;52.138;5.236;2024-03-08T04:17:37;25.73;;;14.50;;
68214;SDS011;55036;52.138;5.236;2024-03-08T04:20:05;28.73;;;16.88;;
68214;SDS011;55036;52.138;5.236;2024-03-08T04:22:36;30.40;;;18.30;;
68214;SDS011;55036;52.138;5.236;2024-03-08T04:25:03;32.40;;;15.95;;
68214;SDS011;55036;52.138;5.236;2024-03-08T04:27:32;30.75;;;18.08;;
68214;SDS011;55036;52.138;5.236;2024-03-08T04:30:00;24.40;;;14.35;;
68214;SDS011;55036;52.138;5.236;2024-03-08T04:32:27;22.15;;;13.13;;
68214;SDS011;55036;52.138;5.236;2024-03-08T04:34:56;33.38;;;18.55;;
68214;SDS011;55036;52.138;5.236;2024-03-08T04:37:23;27.00;;;15.07;;
68214;SDS011;55036;52.138;5.236;2024-03-08T04:39:51;23.23;;;13.13;;
68214;SDS011;55036;52.138;5.236;2024-03-08T04:42:18;35.75;;;18.67;;
68214;SDS011;55036;52.138;5.236;2024-03-08T04:44:45;29.92;;;18.10;;
68214;SDS011;55036;52.138;5.236;2024-03-08T04:47:11;31.50;;;18.83;;
68214;SDS011;55036;52.138;5.236;2024-03-08T04:49:38;20.88;;;12.15;;
68214;SDS011;55036;52.138;5.236;2024-03-08T04:52:05;33.15;;;17.25;;
68214;SDS011;55036;52.138;5.236;2024-03-08T04:54:33;29.85;;;18.30;;
68214;SDS011;55036;52.138;5.236;2024-03-08T04:57:00;31.55;;;18.60;;
68214;SDS011;55036;52.138;5.236;2024-03-08T04:59:30;29.92;;;18.15;;
68214;SDS011;55036;52.138;5.236;2024-03-08T05:01:56;26.30;;;14.60;;
68214;SDS011;55036;52.138;5.236;2024-03-08T05:04:23;24.05;;;15.05;;
68214;SDS011;55036;52.138;5.236;2024-03-08T05:06:50;29.02;;;16.63;;
68214;SDS011;55036;52.138;5.236;2024-03-08T05:09:17;27.70;;;17.80;;
68214;SDS011;55036;52.138;5.236;2024-03-08T05:11:45;30.33;;;18.23;;
68214;SDS011;55036;52.138;5.236;2024-03-08T05:14:16;28.83;;;16.05;;
68214;SDS011;55036;52.138;5.236;2024-03-08T05:16:44;27.38;;;17.50;;
68214;SDS011;55036;52.138;5.236;2024-03-08T05:19:19;33.42;;;18.98;;
68214;SDS011;55036;52.138;5.236;2024-03-08T05:21:47;26.58;;;15.85;;
68214;SDS011;55036;52.138;5.236;2024-03-08T05:24:14;21.35;;;12.35;;
68214;SDS011;55036;52.138;5.236;2024-03-08T05:26:43;31.60;;;17.70;;
68214;SDS011;55036;52.138;5.236;2024-03-08T05:29:10;28.00;;;16.52;;
68214;SDS011;55036;52.138;5.236;2024-03-08T05:31:50;31.02;;;18.15;;
68214;SDS011;55036;52.138;5.236;2024-03-08T05:34:21;30.55;;;18.08;;
68214;SDS011;55036;52.138;5.236;2024-03-08T05:36:48;33.13;;;18.02;;
68214;SDS011;55036;52.138;5.236;2024-03-08T05:39:20;30.02;;;17.73;;
68214;SDS011;55036;52.138;5.236;2024-03-08T05:41:47;31.15;;;18.17;;
68214;SDS011;55036;52.138;5.236;2024-03-08T05:44:14;25.67;;;15.23;;
68214;SDS011;55036;52.138;5.236;2024-03-08T05:46:43;28.42;;;17.05;;
68214;SDS011;55036;52.138;5.236;2024-03-08T05:49:10;21.42;;;13.15;;
68214;SDS011;55036;52.138;5.236;2024-03-08T05:51:38;33.35;;;18.50;;
68214;SDS011;55036;52.138;5.236;2024-03-08T05:54:08;33.20;;;19.45;;
68214;SDS011;55036;52.138;5.236;2024-03-08T05:56:38;24.63;;;15.18;;
68214;SDS011;55036;52.138;5.236;2024-03-08T05:59:10;29.58;;;17.13;;
68214;SDS011;55036;52.138;5.236;2024-03-08T06:01:36;31.77;;;17.65;;
68214;SDS011;55036;52.138;5.236;2024-03-08T06:04:04;30.38;;;18.00;;
68214;SDS011;55036;52.138;5.236;2024-03-08T06:06:30;29.83;;;17.73;;
68214;SDS011;55036;52.138;5.236;2024-03-08T06:08:57;31.77;;;18.33;;
68214;SDS011;55036;52.138;5.236;2024-03-08T06:11:25;21.30;;;13.55;;
68214;SDS011;55036;52.138;5.236;2024-03-08T06:13:56;20.73;;;11.25;;
68214;SDS011;55036;52.138;5.236;2024-03-08T06:16:26;30.00;;;14.65;;
68214;SDS011;55036;52.138;5.236;2024-03-08T06:18:56;32.47;;;18.58;;
68214;SDS011;55036;52.138;5.236;2024-03-08T06:21:24;30.70;;;18.73;;
68214;SDS011;55036;52.138;5.236;2024-03-08T06:23:54;31.25;;;18.33;;
68214;SDS011;55036;52.138;5.236;2024-03-08T06:26:21;27.92;;;17.45;;
68214;SDS011;55036;52.138;5.236;2024-03-08T06:28:48;26.63;;;15.30;;
68214;SDS011;55036;52.138;5.236;2024-03-08T06:31:15;30.60;;;17.55;;
68214;SDS011;55036;52.138;5.236;2024-03-08T06:33:42;27.65;;;17.15;;
68214;SDS011;55036;52.138;5.236;2024-03-08T06:36:09;26.30;;;17.60;;
68214;SDS011;55036;52.138;5.236;2024-03-08T06:38:38;27.63;;;16.90;;
68214;SDS011;55036;52.138;5.236;2024-03-08T06:41:09;30.25;;;16.00;;
68214;SDS011;55036;52.138;5.236;2024-03-08T06:43:42;25.98;;;14.32;;
68214;SDS011;55036;52.138;5.236;2024-03-08T06:46:14;35.42;;;18.52;;
68214;SDS011;55036;52.138;5.236;2024-03-08T06:48:41;32.83;;;19.55;;
68214;SDS011;55036;52.138;5.236;2024-03-08T06:51:08;31.10;;;17.02;;
68214;SDS011;55036;52.138;5.236;2024-03-08T06:53:37;29.25;;;18.52;;
68214;SDS011;55036;52.138;5.236;2024-03-08T06:56:05;32.22;;;18.92;;
68214;SDS011;55036;52.138;5.236;2024-03-08T06:58:33;30.35;;;17.27;;
68214;SDS011;55036;52.138;5.236;2024-03-08T07:01:00;21.73;;;12.50;;
68214;SDS011;55036;52.138;5.236;2024-03-08T07:03:30;32.72;;;18.52;;
68214;SDS011;55036;52.138;5.236;2024-03-08T07:05:58;24.40;;;15.32;;
68214;SDS011;55036;52.138;5.236;2024-03-08T07:08:25;33.70;;;19.08;;
68214;SDS011;55036;52.138;5.236;2024-03-08T07:10:53;32.42;;;18.27;;
68214;SDS011;55036;52.138;5.236;2024-03-08T07:13:20;29.17;;;17.52;;
68214;SDS011;55036;52.138;5.236;2024-03-08T07:15:47;31.05;;;16.95;;
68214;SDS011;55036;52.138;5.236;2024-03-08T07:18:14;30.38;;;18.45;;
68214;SDS011;55036;52.138;5.236;2024-03-08T07:20:41;27.85;;;16.50;;
68214;SDS011;55036;52.138;5.236;2024-03-08T07:23:10;28.30;;;16.55;;
68214;SDS011;55036;52.138;5.236;2024-03-08T07:25:37;25.98;;;15.90;;
68214;SDS011;55036;52.138;5.236;2024-03-08T07:28:05;23.98;;;14.07;;
68214;SDS011;55036;52.138;5.236;2024-03-08T07:30:35;32.38;;;18.83;;
68214;SDS011;55036;52.138;5.236;2024-03-08T07:33:11;28.67;;;17.13;;
68214;SDS011;55036;52.138;5.236;2024-03-08T07:35:40;28.48;;;17.52;;
68214;SDS011;55036;52.138;5.236;2024-03-08T07:38:08;28.50;;;14.77;;
68214;SDS011;55036;52.138;5.236;2024-03-08T07:40:36;25.75;;;12.63;;
68214;SDS011;55036;52.138;5.236;2024-03-08T07:43:10;27.60;;;17.30;;
68214;SDS011;55036;52.138;5.236;2024-03-08T07:45:38;31.02;;;17.63;;
68214;SDS011;55036;52.138;5.236;2024-03-08T07:48:05;25.58;;;14.88;;
68214;SDS011;55036;52.138;5.236;2024-03-08T07:50:39;26.40;;;16.85;;
68214;SDS011;55036;52.138;5.236;2024-03-08T07:53:07;25.98;;;13.45;;
68214;SDS011;55036;52.138;5.236;2024-03-08T07:55:34;32.83;;;18.80;;
68214;SDS011;55036;52.138;5.236;2024-03-08T07:58:02;24.45;;;16.13;;
68214;SDS011;55036;52.138;5.236;2024-03-08T08:00:29;32.08;;;18.17;;
68214;SDS011;55036;52.138;5.236;2024-03-08T08:02:57;29.65;;;18.58;;
68214;SDS011;55036;52.138;5.236;2024-03-08T08:05:25;31.45;;;17.50;;
68214;SDS011;55036;52.138;5.236;2024-03-08T08:07:52;30.25;;;18.70;;
68214;SDS011;55036;52.138;5.236;2024-03-08T08:10:20;27.77;;;16.92;;
68214;SDS011;55036;52.138;5.236;2024-03-08T08:12:51;27.05;;;15.90;;
68214;SDS011;55036;52.138;5.236;2024-03-08T08:15:19;31.42;;;18.35;;
68214;SDS011;55036;52.138;5.236;2024-03-08T08:17:46;28.40;;;18.33;;
68214;SDS011;55036;52.138;5.236;2024-03-08T08:20:13;24.83;;;15.55;;
68214;SDS011;55036;52.138;5.236;2024-03-08T08:22:41;28.08;;;17.50;;
68214;SDS011;55036;52.138;5.236;2024-03-08T08:25:12;29.85;;;16.67;;
68214;SDS011;55036;52.138;5.236;2024-03-08T08:27:39;29.15;;;17.15;;
68214;SDS011;55036;52.138;5.236;2024-03-08T08:30:06;25.65;;;16.80;;
68214;SDS011;55036;52.138;5.236;2024-03-08T08:32:35;30.63;;;18.02;;
68214;SDS011;55036;52.138;5.236;2024-03-08T08:35:11;29.27;;;16.80;;
68214;SDS011;55036;52.138;5.236;2024-03-08T08:37:39;29.42;;;18.63;;
68214;SDS011;55036;52.138;5.236;2024-03-08T08:40:06;25.30;;;15.27;;
68214;SDS011;55036;52.138;5.236;2024-03-08T08:42:36;31.45;;;18.90;;
68214;SDS011;55036;52.138;5.236;2024-03-08T08:45:06;23.85;;;15.13;;
68214;SDS011;55036;52.138;5.236;2024-03-08T08:47:43;32.75;;;19.55;;
68214;SDS011;55036;52.138;5.236;2024-03-08T08:50:11;27.33;;;17.48;;
68214;SDS011;55036;52.138;5.236;2024-03-08T08:52:39;23.52;;;17.63;;
68214;SDS011;55036;52.138;5.236;2024-03-08T08:55:06;28.67;;;17.33;;
68214;SDS011;55036;52.138;5.236;2024-03-08T08:57:34;30.63;;;18.23;;
68214;SDS011;55036;52.138;5.236;2024-03-08T09:00:01;29.50;;;18.45;;
68214;SDS011;55036;52.138;5.236;2024-03-08T09:02:33;23.13;;;13.98;;
68214;SDS011;55036;52.138;5.236;2024-03-08T09:05:00;24.60;;;14.88;;
68214;SDS011;55036;52.138;5.236;2024-03-08T09:07:28;23.25;;;15.60;;
68214;SDS011;55036;52.138;5.236;2024-03-08T09:09:55;25.67;;;15.93;;
68214;SDS011;55036;52.138;5.236;2024-03-08T09:12:24;25.48;;;16.25;;
68214;SDS011;55036;52.138;5.236;2024-03-08T09:14:51;31.05;;;18.48;;
68214;SDS011;55036;52.138;5.236;2024-03-08T09:17:18;28.17;;;17.27;;
68214;SDS011;55036;52.138;5.236;2024-03-08T09:19:47;29.58;;;17.67;;
68214;SDS011;55036;52.138;5.236;2024-03-08T09:22:14;26.33;;;15.57;;
68214;SDS011;55036;52.138;5.236;2024-03-08T09:24:41;28.05;;;17.70;;
68214;SDS011;55036;52.138;5.236;2024-03-08T09:27:09;26.58;;;16.80;;
68214;SDS011;55036;52.138;5.236;2024-03-08T09:29:36;24.15;;;13.60;;
68214;SDS011;55036;52.138;5.236;2024-03-08T09:32:03;25.55;;;17.27;;
68214;SDS011;55036;52.138;5.236;2024-03-08T09:34:30;31.27;;;17.50;;
68214;SDS011;55036;52.138;5.236;2024-03-08T09:37:03;26.33;;;17.05;;
68214;SDS011;55036;52.138;5.236;2024-03-08T09:39:30;29.33;;;18.17;;
68214;SDS011;55036;52.138;5.236;2024-03-08T09:41:59;26.00;;;16.33;;
68214;SDS011;55036;52.138;5.236;2024-03-08T09:44:26;27.00;;;16.80;;
68214;SDS011;55036;52.138;5.236;2024-03-08T09:46:55;30.58;;;18.80;;
68214;SDS011;55036;52.138;5.236;2024-03-08T09:49:22;28.70;;;17.98;;
68214;SDS011;55036;52.138;5.236;2024-03-08T09:51:48;24.52;;;17.20;;
68214;SDS011;55036;52.138;5.236;2024-03-08T09:54:19;28.67;;;17.35;;
68214;SDS011;55036;52.138;5.236;2024-03-08T09:56:50;27.52;;;17.40;;
68214;SDS011;55036;52.138;5.236;2024-03-08T09:59:18;24.40;;;16.17;;
68214;SDS011;55036;52.138;5.236;2024-03-08T10:01:54;18.60;;;11.50;;
68214;SDS011;55036;52.138;5.236;2024-03-08T10:04:25;25.50;;;16.30;;
68214;SDS011;55036;52.138;5.236;2024-03-08T10:06:54;25.27;;;16.33;;
68214;SDS011;55036;52.138;5.236;2024-03-08T10:09:23;21.70;;;12.90;;
68214;SDS011;55036;52.138;5.236;2024-03-08T10:11:53;22.17;;;13.00;;
68214;SDS011;55036;52.138;5.236;2024-03-08T10:14:24;22.38;;;14.48;;
68214;SDS011;55036;52.138;5.236;2024-03-08T10:16:53;25.20;;;16.38;;
68214;SDS011;55036;52.138;5.236;2024-03-08T10:19:20;26.63;;;17.25;;
68214;SDS011;55036;52.138;5.236;2024-03-08T10:21:52;29.40;;;17.10;;
68214;SDS011;55036;52.138;5.236;2024-03-08T10:24:23;25.48;;;15.23;;
68214;SDS011;55036;52.138;5.236;2024-03-08T10:26:53;26.88;;;17.92;;
68214;SDS011;55036;52.138;5.236;2024-03-08T10:29:33;19.92;;;13.13;;
68214;SDS011;55036;52.138;5.236;2024-03-08T10:32:00;21.63;;;12.10;;
68214;SDS011;55036;52.138;5.236;2024-03-08T10:34:28;24.15;;;16.02;;
68214;SDS011;55036;52.138;5.236;2024-03-08T10:36:56;23.02;;;14.65;;
68214;SDS011;55036;52.138;5.236;2024-03-08T10:39:33;24.63;;;16.52;;
68214;SDS011;55036;52.138;5.236;2024-03-08T10:42:04;22.00;;;12.95;;
68214;SDS011;55036;52.138;5.236;2024-03-08T10:44:38;24.45;;;16.10;;
68214;SDS011;55036;52.138;5.236;2024-03-08T10:47:18;23.67;;;14.95;;
68214;SDS011;55036;52.138;5.236;2024-03-08T10:49:55;25.77;;;15.63;;
68214;SDS011;55036;52.138;5.236;2024-03-08T10:52:42;24.85;;;16.20;;
68214;SDS011;55036;52.138;5.236;2024-03-08T10:55:10;22.38;;;15.32;;
68214;SDS011;55036;52.138;5.236;2024-03-08T10:57:40;26.42;;;16.73;;
68214;SDS011;55036;52.138;5.236;2024-03-08T11:00:07;19.83;;;14.32;;
68214;SDS011;55036;52.138;5.236;2024-03-08T11:02:37;24.25;;;15.73;;
68214;SDS011;55036;52.138;5.236;2024-03-08T11:05:04;21.45;;;14.45;;
68214;SDS011;55036;52.138;5.236;2024-03-08T11:07:42;20.85;;;13.73;;
68214;SDS011;55036;52.138;5.236;2024-03-08T11:10:18;21.52;;;14.05;;
68214;SDS011;55036;52.138;5.236;2024-03-08T11:12:46;21.50;;;14.10;;
68214;SDS011;55036;52.138;5.236;2024-03-08T11:15:14;24.23;;;14.43;;
68214;SDS011;55036;52.138;5.236;2024-03-08T11:17:45;22.48;;;14.77;;
68214;SDS011;55036;52.138;5.236;2024-03-08T11:20:17;20.20;;;14.15;;
68214;SDS011;55036;52.138;5.236;2024-03-08T11:22:48;21.05;;;13.75;;
68214;SDS011;55036;52.138;5.236;2024-03-08T11:25:38;18.95;;;13.10;;
68214;SDS011;55036;52.138;5.236;2024-03-08T11:28:16;22.80;;;14.70;;
68214;SDS011;55036;52.138;5.236;2024-03-08T11:33:28;21.65;;;13.65;;
68214;SDS011;55036;52.138;5.236;2024-03-08T11:36:13;21.42;;;14.20;;
68214;SDS011;55036;52.138;5.236;2024-03-08T11:38:48;22.30;;;14.00;;
68214;SDS011;55036;52.138;5.236;2024-03-08T11:41:19;22.38;;;15.57;;
68214;SDS011;55036;52.138;5.236;2024-03-08T11:43:47;20.42;;;12.00;;
68214;SDS011;55036;52.138;5.236;2024-03-08T11:46:15;21.13;;;12.70;;
68214;SDS011;55036;52.138;5.236;2024-03-08T11:48:44;16.33;;;11.05;;
68214;SDS011;55036;52.138;5.236;2024-03-08T11:51:15;22.95;;;14.52;;
68214;SDS011;55036;52.138;5.236;2024-03-08T11:53:44;17.02;;;11.73;;
68214;SDS011;55036;52.138;5.236;2024-03-08T11:56:14;22.08;;;12.70;;
68214;SDS011;55036;52.138;5.236;2024-03-08T11:58:41;17.83;;;11.70;;
68214;SDS011;55036;52.138;5.236;2024-03-08T12:01:09;21.02;;;11.70;;
68214;SDS011;55036;52.138;5.236;2024-03-08T12:03:41;22.45;;;14.10;;
68214;SDS011;55036;52.138;5.236;2024-03-08T12:06:09;21.67;;;13.75;;
68214;SDS011;55036;52.138;5.236;2024-03-08T12:08:36;22.00;;;13.73;;
68214;SDS011;55036;52.138;5.236;2024-03-08T12:11:03;18.98;;;12.63;;
68214;SDS011;55036;52.138;5.236;2024-03-08T12:13:32;18.35;;;11.85;;
68214;SDS011;55036;52.138;5.236;2024-03-08T12:16:01;17.15;;;11.43;;
68214;SDS011;55036;52.138;5.236;2024-03-08T12:18:38;17.65;;;11.23;;
68214;SDS011;55036;52.138;5.236;2024-03-08T12:21:11;14.70;;;9.52;;
68214;SDS011;55036;52.138;5.236;2024-03-08T12:23:46;15.27;;;10.73;;
68214;SDS011;55036;52.138;5.236;2024-03-08T12:26:24;16.50;;;11.02;;
68214;SDS011;55036;52.138;5.236;2024-03-08T12:28:52;18.02;;;11.10;;
68214;SDS011;55036;52.138;5.236;2024-03-08T12:31:20;15.45;;;10.85;;
68214;SDS011;55036;52.138;5.236;2024-03-08T12:33:50;17.27;;;10.85;;
68214;SDS011;55036;52.138;5.236;2024-03-08T12:36:22;14.90;;;10.63;;
68214;SDS011;55036;52.138;5.236;2024-03-08T12:38:49;15.13;;;10.15;;
68214;SDS011;55036;52.138;5.236;2024-03-08T12:41:19;17.70;;;11.40;;
68214;SDS011;55036;52.138;5.236;2024-03-08T12:43:47;14.30;;;11.73;;
68214;SDS011;55036;52.138;5.236;2024-03-08T12:46:18;15.38;;;10.57;;
68214;SDS011;55036;52.138;5.236;2024-03-08T12:48:46;17.27;;;11.25;;
68214;SDS011;55036;52.138;5.236;2024-03-08T12:51:14;15.77;;;11.23;;
68214;SDS011;55036;52.138;5.236;2024-03-08T12:53:45;17.03;;;10.50;;
68214;SDS011;55036;52.138;5.236;2024-03-08T12:56:28;16.70;;;11.48;;
68214;SDS011;55036;52.138;5.236;2024-03-08T12:58:56;17.73;;;10.93;;
68214;SDS011;55036;52.138;5.236;2024-03-08T13:01:23;16.52;;;10.93;;
68214;SDS011;55036;52.138;5.236;2024-03-08T13:03:50;18.38;;;11.77;;
68214;SDS011;55036;52.138;5.236;2024-03-08T13:06:17;17.67;;;11.40;;
68214;SDS011;55036;52.138;5.236;2024-03-08T13:08:43;16.77;;;10.80;;
68214;SDS011;55036;52.138;5.236;2024-03-08T13:11:10;16.27;;;11.20;;
68214;SDS011;55036;52.138;5.236;2024-03-08T13:13:38;17.02;;;11.20;;
68214;SDS011;55036;52.138;5.236;2024-03-08T13:16:06;17.70;;;12.15;;
68214;SDS011;55036;52.138;5.236;2024-03-08T13:18:36;20.25;;;12.75;;
68214;SDS011;55036;52.138;5.236;2024-03-08T13:21:03;16.98;;;10.35;;
68214;SDS011;55036;52.138;5.236;2024-03-08T13:23:34;16.33;;;11.48;;
68214;SDS011;55036;52.138;5.236;2024-03-08T13:26:08;16.15;;;10.25;;
68214;SDS011;55036;52.138;5.236;2024-03-08T13:28:50;14.77;;;8.25;;
68214;SDS011;55036;52.138;5.236;2024-03-08T13:31:20;15.93;;;10.88;;
68214;SDS011;55036;52.138;5.236;2024-03-08T13:33:48;17.80;;;12.00;;
68214;SDS011;55036;52.138;5.236;2024-03-08T13:36:15;20.15;;;12.50;;
68214;SDS011;55036;52.138;5.236;2024-03-08T13:38:43;17.55;;;11.80;;
68214;SDS011;55036;52.138;5.236;2024-03-08T13:41:10;16.55;;;10.95;;
68214;SDS011;55036;52.138;5.236;2024-03-08T13:43:40;17.20;;;11.68;;
68214;SDS011;55036;52.138;5.236;2024-03-08T13:46:08;26.30;;;13.10;;
68214;SDS011;55036;52.138;5.236;2024-03-08T13:48:36;18.65;;;12.38;;
68214;SDS011;55036;52.138;5.236;2024-03-08T13:51:07;16.23;;;8.82;;
68214;SDS011;55036;52.138;5.236;2024-03-08T13:53:36;20.52;;;10.98;;
68214;SDS011;55036;52.138;5.236;2024-03-08T13:56:03;20.08;;;12.48;;
68214;SDS011;55036;52.138;5.236;2024-03-08T13:58:32;18.30;;;12.65;;
68214;SDS011;55036;52.138;5.236;2024-03-08T14:00:58;16.90;;;12.00;;
68214;SDS011;55036;52.138;5.236;2024-03-08T14:03:26;16.83;;;10.95;;
68214;SDS011;55036;52.138;5.236;2024-03-08T14:05:53;17.90;;;11.20;;
68214;SDS011;55036;52.138;5.236;2024-03-08T14:08:22;18.73;;;12.15;;
68214;SDS011;55036;52.138;5.236;2024-03-08T14:10:48;16.88;;;10.15;;
68214;SDS011;55036;52.138;5.236;2024-03-08T14:13:17;15.52;;;10.88;;
68214;SDS011;55036;52.138;5.236;2024-03-08T14:15:45;21.10;;;12.98;;
68214;SDS011;55036;52.138;5.236;2024-03-08T14:18:12;20.02;;;12.45;;
68214;SDS011;55036;52.138;5.236;2024-03-08T14:20:39;17.75;;;12.30;;
68214;SDS011;55036;52.138;5.236;2024-03-08T14:23:08;16.88;;;11.52;;
68214;SDS011;55036;52.138;5.236;2024-03-08T14:25:37;18.35;;;12.45;;
68214;SDS011;55036;52.138;5.236;2024-03-08T14:28:04;22.13;;;14.20;;
68214;SDS011;55036;52.138;5.236;2024-03-08T14:30:34;19.20;;;13.10;;
68214;SDS011;55036;52.138;5.236;2024-03-08T14:33:02;19.65;;;13.23;;